Freda, North Dakota
Current Conditions -  °F | °C
As of 10:35 PM on Thursday 27 Nov 2014 (Local Time) from KY19 Reporting Station
Clear Clear  
Wind Chill: -3°   Ceiling: Unl
Heat Index: 10°   Visibility: 10mi
Dew Point:   Wind: 10mph
Humidity: 85%   Direction: 110°ESE
Pressure: 29.86"   Gusts: NA
Location:  46.3317°N, 101.236°W
Report Text: KY19 280535Z AUTO 11009KT 10SM CLR M12/M14 A2986 RMK AO2
Loading
Personal Weather Stations






























Interactive Weather Map New forecast layout! Learn more

10-Day Weather Forecast

Advertisements
Track Severe Weather on mobile